createdAt,value
2023-04-27T00:01:22.198Z,23.7
2023-04-27T00:07:16.875Z,23.7
2023-04-27T00:13:08.639Z,23.7
2023-04-27T00:18:59.953Z,23.7
2023-04-27T00:24:51.639Z,23.7
2023-04-27T00:30:27.652Z,23.7
2023-04-27T00:36:18.596Z,23.7
2023-04-27T00:42:09.746Z,23.7
2023-04-27T00:48:03.165Z,23.7
2023-04-27T00:53:54.182Z,23.7
2023-04-27T00:59:45.780Z,23.7
2023-04-27T01:05:24.015Z,24.4
2023-04-27T01:11:15.494Z,27.3
2023-04-27T01:17:07.475Z,30.3
2023-04-27T01:22:59.300Z,32.6
2023-04-27T01:28:52.100Z,34.6
2023-04-27T01:34:44.842Z,36
2023-04-27T01:40:36.567Z,37
2023-04-27T01:46:28.343Z,37.9
2023-04-27T01:52:19.902Z,38.8
2023-04-27T01:58:11.018Z,39.4
2023-04-27T02:04:03.306Z,40.2
2023-04-27T02:09:40.098Z,40.9
2023-04-27T02:15:16.660Z,41.7
2023-04-27T02:21:08.379Z,42.5
2023-04-27T02:27:00.311Z,42.9
2023-04-27T02:32:57.414Z,43.1
2023-04-27T02:38:48.734Z,43.3
2023-04-27T02:44:39.878Z,43.3
2023-04-27T02:50:16.414Z,43.3
2023-04-27T02:56:07.560Z,43.3
2023-04-27T03:02:00.030Z,43.3
2023-04-27T03:07:53.838Z,43.3
2023-04-27T03:13:47.658Z,43.2
2023-04-27T03:19:39.685Z,43.2
2023-04-27T03:25:30.923Z,43.1
2023-04-27T03:31:06.819Z,43
2023-04-27T03:36:43.512Z,42.9
2023-04-27T03:42:19.766Z,42.9
2023-04-27T03:48:11.312Z,42.8
2023-04-27T03:54:02.318Z,42.7
2023-04-27T03:59:54.022Z,42.6
2023-04-27T04:05:47.864Z,42.5
2023-04-27T04:11:38.983Z,42.4
2023-04-27T04:17:30.650Z,42.4
2023-04-27T04:23:21.539Z,42.3
2023-04-27T04:29:13.889Z,42.2
2023-04-27T04:34:50.524Z,42.1
2023-04-27T04:40:26.790Z,42
2023-04-27T04:46:05.752Z,41.9
2023-04-27T04:52:00.430Z,41.9
2023-04-27T04:57:51.464Z,41.8
2023-04-27T05:03:46.420Z,41.7
2023-04-27T05:09:42.428Z,41.6
2023-04-27T05:15:35.356Z,41.6
2023-04-27T05:21:28.183Z,41.4
2023-04-27T05:27:04.639Z,41.4
2023-04-27T05:32:56.488Z,41.3
2023-04-27T05:38:32.326Z,41.2
2023-04-27T05:43:53.256Z,41.1
2023-04-27T05:49:30.544Z,41.1
2023-04-27T05:55:06.542Z,41
2023-04-27T06:00:51.799Z,40.9
2023-04-27T06:06:31.928Z,40.8
2023-04-27T06:12:07.701Z,40.8
2023-04-27T06:17:44.264Z,40.7
2023-04-27T06:23:20.797Z,40.6
2023-04-27T06:29:12.671Z,40.6
2023-04-27T06:35:04.611Z,40.5
2023-04-27T06:40:57.556Z,40.4
2023-04-27T06:46:49.988Z,40.3
2023-04-27T06:52:41.686Z,40.3
2023-04-27T06:58:35.605Z,39.9
2023-04-27T07:04:28.456Z,36.3
2023-04-27T07:10:32.582Z,27.4
2023-04-27T07:16:23.918Z,31
2023-04-27T07:22:15.419Z,33
2023-04-27T07:28:08.713Z,34.5
2023-04-27T07:34:13.505Z,35.9
2023-04-27T07:40:21.062Z,37.1
2023-04-27T07:46:12.496Z,38.5
2023-04-27T07:52:04.345Z,39.6
2023-04-27T07:57:55.978Z,40.7
2023-04-27T08:04:04.311Z,41.6
2023-04-27T08:09:52.191Z,42.6
2023-04-27T08:15:28.143Z,43.6
2023-04-27T08:20:33.304Z,44.6
2023-04-27T08:25:38.617Z,45.4
2023-04-27T08:31:12.934Z,46.3
2023-04-27T08:36:19.035Z,47.3
2023-04-27T08:41:54.328Z,47.8
2023-04-27T08:47:15.875Z,48.4
2023-04-27T08:53:02.114Z,49.3
2023-04-27T08:58:56.259Z,49.7
2023-04-27T09:04:50.922Z,49.3
2023-04-27T09:10:54.672Z,50.1
2023-04-27T09:16:45.850Z,50.5
2023-04-27T09:22:06.596Z,51.2
2023-04-27T09:27:42.788Z,50.8
2023-04-27T09:33:35.000Z,51.6
2023-04-27T09:39:26.320Z,50.1
2023-04-27T09:45:19.564Z,50.9
2023-04-27T09:50:55.825Z,51.3
2023-04-27T09:56:46.903Z,50.2
2023-04-27T10:03:08.937Z,51.1
2023-04-27T10:09:01.023Z,50.6
2023-04-27T10:14:52.309Z,52.1
2023-04-27T10:20:46.868Z,52.7
2023-04-27T10:26:39.367Z,52.7
2023-04-27T10:32:31.331Z,51.6
2023-04-27T10:38:22.708Z,52.9
2023-04-27T10:44:29.570Z,51.8
2023-04-27T10:50:20.781Z,52.8
2023-04-27T10:55:57.130Z,51.9
2023-04-27T11:07:36.505Z,51.5
2023-04-27T11:13:12.005Z,51
2023-04-27T11:19:03.585Z,50.8
2023-04-27T11:24:55.053Z,50.5
2023-04-27T11:30:46.863Z,49.9
2023-04-27T11:36:26.008Z,50.8
2023-04-27T11:42:01.087Z,50
2023-04-27T11:47:37.738Z,49.4
2023-04-27T11:52:58.753Z,49
2023-04-27T11:58:22.193Z,48.6
2023-04-27T12:03:52.265Z,49.5
2023-04-27T12:09:39.673Z,50.7
2023-04-27T12:15:16.190Z,51.4
2023-04-27T12:20:37.959Z,50.7
2023-04-27T12:26:31.781Z,50.3
2023-04-27T12:31:53.379Z,50.9
2023-04-27T12:37:45.529Z,50.4
2023-04-27T12:43:36.816Z,50.5
2023-04-27T12:49:57.378Z,50.4
2023-04-27T12:56:04.195Z,49.9
2023-04-27T13:01:56.858Z,50.1
2023-04-27T13:07:51.033Z,49.4
2023-04-27T13:13:42.616Z,49.6
2023-04-27T13:19:40.822Z,49.6
2023-04-27T13:25:33.410Z,50
2023-04-27T13:31:25.407Z,49.4
2023-04-27T13:37:31.552Z,48.5
2023-04-27T13:43:23.146Z,48.1
2023-04-27T13:48:59.914Z,47.9
2023-04-27T13:54:51.512Z,47.3
2023-04-27T14:00:43.115Z,46.7
2023-04-27T14:06:37.001Z,46.2
2023-04-27T14:12:44.050Z,45.8
2023-04-27T14:18:48.184Z,45.6
2023-04-27T14:24:40.861Z,45.1
2023-04-27T14:30:32.130Z,44.8
2023-04-27T14:36:23.384Z,44.2
2023-04-27T14:42:15.771Z,43.6
2023-04-27T14:48:33.018Z,41.9
2023-04-27T14:54:24.483Z,36.7
2023-04-27T15:00:15.715Z,39
2023-04-27T15:06:09.176Z,33.8
2023-04-27T15:12:00.871Z,35.6
2023-04-27T15:17:53.277Z,33.4
2023-04-27T15:23:45.282Z,32.4
2023-04-27T15:29:38.923Z,31.6
2023-04-27T15:35:31.180Z,30.9
2023-04-27T15:41:22.734Z,30.3
2023-04-27T15:46:59.669Z,29.9
2023-04-27T15:53:04.991Z,29.6
2023-04-27T15:58:58.681Z,29.4
2023-04-27T16:04:52.403Z,29.1
2023-04-27T16:10:47.405Z,28.9
2023-04-27T16:16:23.700Z,28.8
2023-04-27T16:22:15.629Z,28.7
2023-04-27T16:28:07.352Z,28.6
2023-04-27T16:33:59.390Z,28.5
2023-04-27T16:39:50.508Z,28.4
2023-04-27T16:45:27.597Z,28.4
2023-04-27T16:51:19.972Z,28.3
2023-04-27T16:56:56.581Z,28.3
2023-04-27T17:03:00.821Z,28.2
2023-04-27T17:08:54.590Z,28.1
2023-04-27T17:14:46.574Z,28.1
2023-04-27T17:20:40.961Z,28.1
2023-04-27T17:26:33.705Z,28
2023-04-27T17:32:27.190Z,28
2023-04-27T17:38:22.327Z,27.9
2023-04-27T17:44:14.331Z,27.9
2023-04-27T17:50:05.833Z,27.9
2023-04-27T17:55:58.109Z,27.9
2023-04-27T18:18:16.370Z,27.8
2023-04-27T18:24:22.340Z,27.8
2023-04-27T18:30:16.253Z,27.8
2023-04-27T18:36:08.835Z,27.7
2023-04-27T18:42:00.584Z,27.7
2023-04-27T18:47:52.553Z,27.7
2023-04-27T18:53:29.433Z,27.7
2023-04-27T18:59:21.561Z,27.6
2023-04-27T19:05:34.627Z,27.5
2023-04-27T19:11:27.870Z,27.3
2023-04-27T19:17:25.102Z,27.3
2023-04-27T19:23:28.280Z,27.2
2023-04-27T19:29:37.200Z,27.2
2023-04-27T19:35:34.084Z,27.2
2023-04-27T19:41:30.141Z,27.2
2023-04-27T19:47:07.586Z,27.2
2023-04-27T19:53:01.432Z,27.2
2023-04-27T19:58:54.461Z,27.2
2023-04-27T20:04:50.324Z,27.1
2023-04-27T20:10:45.985Z,27.1
2023-04-27T20:16:55.342Z,27.1
2023-04-27T20:22:35.740Z,27.1
2023-04-27T20:28:13.400Z,27.1
2023-04-27T20:34:06.974Z,27.1
2023-04-27T20:40:13.969Z,27.1
2023-04-27T20:46:06.576Z,27.1
2023-04-27T20:51:37.018Z,27.1
2023-04-27T20:57:33.429Z,27.1
2023-04-27T21:03:26.448Z,27.1
2023-04-27T21:09:19.344Z,27.1
2023-04-27T21:15:13.915Z,27.1
2023-04-27T21:21:19.804Z,27.1
2023-04-27T21:27:20.191Z,27.1
2023-04-27T21:33:14.922Z,27
2023-04-27T21:39:07.090Z,27.1
2023-04-27T21:44:58.631Z,27.1
2023-04-27T21:50:50.629Z,27.1
2023-04-27T21:56:27.321Z,27
2023-04-27T22:02:22.470Z,27
2023-04-27T22:08:15.407Z,27
2023-04-27T22:13:51.104Z,27
2023-04-27T22:19:42.758Z,26.9
2023-04-27T22:25:34.444Z,26.9
2023-04-27T22:31:39.781Z,26.9
2023-04-27T22:37:39.000Z,26.9
2023-04-27T22:43:30.379Z,26.9
2023-04-27T22:49:21.252Z,26.9
2023-04-27T22:55:12.086Z,26.9
2023-04-27T23:01:03.276Z,26.9
2023-04-27T23:06:56.368Z,26.9
2023-04-27T23:12:47.910Z,26.9
2023-04-27T23:18:39.759Z,26.9
2023-04-27T23:24:37.668Z,26.9
2023-04-27T23:30:29.164Z,26.9
2023-04-27T23:36:21.190Z,26.9
2023-04-27T23:41:56.863Z,26.9
2023-04-27T23:47:33.109Z,26.9
2023-04-27T23:53:24.356Z,26.9
2023-04-27T23:59:00.827Z,26.9
